This is the latest recevied weather packets stored in our database for station/object KO4WIL-13. If no packets are shown the sender has not sent any weather packets the latest 1 day(s).
| Time | Temp. | Humidity | Pressure | Rain* | Wind** | Luminosity | Snow |
|---|---|---|---|---|---|---|---|
| 1778087622 | 18.89° C | 90% | 964.4 hPa | 0 mm | - | - | - |
| 1778086715 | 18.33° C | 90% | 964.1 hPa | 0 mm | - | - | - |
| 1778083996 | 16.67° C | 96% | 964.4 hPa | 0.51 mm | - | - | - |
| 1778083694 | 16.67° C | 96% | 964.4 hPa | 0.51 mm | - | - | - |
| 1778083392 | 16.67° C | 96% | 964.5 hPa | 0.51 mm | - | - | - |
| 1778082184 | 16.67° C | 95% | 964.5 hPa | 0.51 mm | - | - | - |
| 1778081882 | 16.67° C | 95% | 964.6 hPa | 0.25 mm | - | - | - |
| 1778081580 | 16.67° C | 94% | 964.6 hPa | 0.25 mm | - | - | - |
| 1778081278 | 17.22° C | 94% | 964.9 hPa | 0.25 mm | - | - | - |
| 1778080069 | 17.22° C | 94% | 965.2 hPa | 0.25 mm | - | - | - |
| 1778079767 | 17.22° C | 94% | 965 hPa | 0.25 mm | - | - | - |
| 1778076444 | 17.22° C | 94% | 964.3 hPa | 0.51 mm | - | - | - |
| 1778076142 | 16.67° C | 94% | 964 hPa | 0.51 mm | - | - | - |
| 1778075840 | 16.67° C | 94% | 963.9 hPa | 0.76 mm | - | - | - |
| 1778075538 | 16.67° C | 94% | 963.7 hPa | 0.76 mm | - | - | - |
| 1778074027 | 17.22° C | 94% | 963.9 hPa | 0.51 mm | - | - | - |
| 1778072213 | 17.22° C | 90% | 963.9 hPa | 0.76 mm | - | - | - |
| 1778071911 | 17.22° C | 90% | 963.7 hPa | 0.76 mm | - | - | - |
| 1778071306 | 17.22° C | 89% | 963.6 hPa | 0.76 mm | - | - | - |
| 1778070702 | 17.22° C | 89% | 963.5 hPa | 0.76 mm | - | - | - |
| 1778070098 | 17.78° C | 87% | 963.6 hPa | 0.51 mm | - | - | - |
| 1778069796 | 17.78° C | 86% | 963.8 hPa | 0.25 mm | - | - | - |
| 1778069493 | 18.33° C | 84% | 963.9 hPa | 0.25 mm | - | - | - |
| 1778068285 | 18.33° C | 80% | 963.3 hPa | 0.25 mm | - | - | - |
| 1778067983 | 18.33° C | 80% | 963.1 hPa | 0.25 mm | - | - | - |
* Rain latest hour (hover to see other rain measurements)
** Current wind speed in m/s (hover to see current wind gust speed)